createdAt,value
2022-10-18T00:02:22.473Z,4.60
2022-10-18T00:08:24.244Z,4.82
2022-10-18T00:14:25.705Z,5.10
2022-10-18T00:20:27.168Z,4.53
2022-10-18T00:26:29.207Z,4.90
2022-10-18T00:32:30.851Z,4.97
2022-10-18T00:38:32.513Z,5.10
2022-10-18T00:44:34.043Z,4.63
2022-10-18T00:50:36.199Z,5.35
2022-10-18T00:56:37.739Z,5.32
2022-10-18T01:02:41.355Z,4.63
2022-10-18T01:08:58.564Z,5.10
2022-10-18T01:15:05.861Z,4.80
2022-10-18T01:21:17.761Z,5.65
2022-10-18T01:27:35.708Z,6.10
2022-10-18T01:33:37.187Z,6.47
2022-10-18T01:39:40.316Z,5.50
2022-10-18T01:45:42.153Z,5.23
2022-10-18T01:51:43.759Z,5.30
2022-10-18T01:57:50.464Z,4.85
2022-10-18T02:03:54.554Z,5.30
2022-10-18T02:10:06.561Z,4.78
2022-10-18T02:16:09.870Z,4.90
2022-10-18T02:22:12.023Z,4.68
2022-10-18T02:28:13.618Z,5.05
2022-10-18T02:34:20.967Z,4.83
2022-10-18T02:40:22.687Z,4.72
2022-10-18T02:46:24.297Z,4.73
2022-10-18T02:52:25.759Z,4.93
2022-10-18T02:58:27.334Z,5.07
2022-10-18T03:10:35.133Z,5.20
2022-10-18T03:16:36.669Z,5.23
2022-10-18T03:22:38.112Z,5.28
2022-10-18T03:28:39.574Z,4.78
2022-10-18T03:34:41.080Z,5.37
2022-10-18T03:40:42.504Z,5.20
2022-10-18T03:46:43.930Z,5.03
2022-10-18T03:52:45.358Z,5.25
2022-10-18T03:58:47.080Z,4.90
2022-10-18T04:04:49.315Z,4.90
2022-10-18T04:10:52.465Z,4.97
2022-10-18T04:16:53.893Z,5.00
2022-10-18T04:22:57.331Z,4.88
2022-10-18T04:28:58.822Z,5.38
2022-10-18T04:35:00.439Z,5.00
2022-10-18T04:41:01.904Z,5.85
2022-10-18T04:47:03.351Z,5.60
2022-10-18T04:53:04.802Z,5.40
2022-10-18T04:59:06.410Z,5.43
2022-10-18T05:05:10.347Z,5.43
2022-10-18T05:11:15.020Z,5.40
2022-10-18T05:17:16.558Z,5.30
2022-10-18T05:23:18.006Z,5.75
2022-10-18T05:29:19.611Z,5.75
2022-10-18T05:35:21.109Z,5.80
2022-10-18T05:41:22.620Z,6.32
2022-10-18T05:47:24.181Z,6.97
2022-10-18T05:53:36.348Z,7.60
2022-10-18T05:59:38.453Z,6.35
2022-10-18T06:11:46.224Z,7.30
2022-10-18T06:17:47.693Z,7.50
2022-10-18T06:23:49.763Z,7.60
2022-10-18T06:29:51.211Z,7.07
2022-10-18T06:35:57.213Z,7.63
2022-10-18T06:41:58.631Z,8.27
2022-10-18T06:48:00.055Z,8.13
2022-10-18T06:54:18.726Z,8.65
2022-10-18T07:00:20.634Z,8.25
2022-10-18T07:06:23.121Z,9.07
2022-10-18T07:12:24.767Z,9.10
2022-10-18T07:18:26.449Z,8.80
2022-10-18T07:24:27.965Z,8.52
2022-10-18T07:30:29.438Z,8.38
2022-10-18T07:36:31.339Z,9.67
2022-10-18T07:42:34.448Z,9.93
2022-10-18T07:48:35.900Z,9.87
2022-10-18T07:54:37.448Z,9.85
2022-10-18T08:00:39.378Z,6.38
2022-10-18T08:06:40.832Z,5.20
2022-10-18T08:12:42.423Z,5.10
2022-10-18T08:18:44.126Z,5.23
2022-10-18T08:24:45.572Z,4.90
2022-10-18T08:30:47.090Z,5.22
2022-10-18T08:36:48.562Z,4.77
2022-10-18T08:42:57.929Z,4.38
2022-10-18T08:48:59.743Z,3.90
2022-10-18T08:55:03.271Z,3.22
2022-10-18T09:01:20.258Z,2.50
2022-10-18T09:07:40.264Z,2.50
2022-10-18T09:14:00.444Z,3.17
2022-10-18T09:20:21.800Z,2.60
2022-10-18T09:26:23.918Z,2.97
2022-10-18T09:32:44.086Z,2.55
2022-10-18T09:38:48.313Z,2.33
2022-10-18T09:44:55.520Z,3.08
2022-10-18T09:51:00.764Z,2.70
2022-10-18T09:57:05.476Z,2.70
2022-10-18T10:03:11.024Z,2.40
2022-10-18T10:09:17.003Z,2.67
2022-10-18T10:15:20.126Z,2.28
2022-10-18T10:21:22.264Z,2.53
2022-10-18T10:27:30.152Z,2.42
2022-10-18T10:33:36.313Z,2.97
2022-10-18T10:39:37.762Z,3.10
2022-10-18T10:45:59.520Z,3.42
2022-10-18T10:52:15.387Z,3.97
2022-10-18T10:58:23.932Z,4.22
2022-10-18T11:04:29.689Z,4.13
2022-10-18T11:10:34.514Z,4.10
2022-10-18T11:16:56.196Z,3.80
2022-10-18T11:23:02.644Z,3.80
2022-10-18T11:29:26.044Z,3.67
2022-10-18T11:35:27.865Z,3.53
2022-10-18T11:41:52.725Z,3.17
2022-10-18T11:48:13.122Z,3.65
2022-10-18T11:54:29.045Z,3.00
2022-10-18T12:00:40.480Z,3.15
2022-10-18T12:06:42.872Z,3.45
2022-10-18T12:12:58.315Z,3.30
2022-10-18T12:19:01.623Z,2.97
2022-10-18T12:25:04.171Z,3.40
2022-10-18T12:31:24.483Z,3.95
2022-10-18T12:37:35.173Z,4.15
2022-10-18T12:43:36.949Z,4.40
2022-10-18T12:49:41.411Z,3.75
2022-10-18T12:55:47.280Z,4.07
2022-10-18T13:01:51.910Z,3.58
2022-10-18T13:08:01.998Z,3.63
2022-10-18T13:14:15.230Z,3.80
2022-10-18T13:20:31.770Z,4.38
2022-10-18T13:26:59.121Z,4.13
2022-10-18T13:33:18.427Z,4.32
2022-10-18T13:39:20.426Z,4.50
2022-10-18T13:45:31.841Z,4.63
2022-10-18T13:51:40.938Z,4.75
2022-10-18T13:57:57.211Z,4.97
2022-10-18T14:04:13.787Z,5.53
2022-10-18T14:10:43.265Z,4.45
2022-10-18T14:16:50.288Z,4.23
2022-10-18T14:23:10.451Z,4.15
2022-10-18T14:29:19.465Z,3.63
2022-10-18T14:35:37.634Z,3.80
2022-10-18T14:41:48.089Z,3.92
2022-10-18T14:47:49.686Z,3.60
2022-10-18T14:53:51.593Z,4.38
2022-10-18T14:59:56.927Z,4.10
2022-10-18T15:05:59.785Z,3.97
2022-10-18T15:12:03.172Z,4.32
2022-10-18T15:18:06.448Z,4.87
2022-10-18T15:24:26.323Z,4.75
2022-10-18T15:30:28.996Z,4.83
2022-10-18T15:36:31.990Z,5.22
2022-10-18T15:42:37.443Z,5.32
2022-10-18T15:48:40.383Z,4.67
2022-10-18T15:54:41.954Z,5.15
2022-10-18T16:00:44.035Z,5.57
2022-10-18T16:06:45.787Z,5.90
2022-10-18T16:12:47.654Z,5.80
2022-10-18T16:18:49.600Z,5.77
2022-10-18T16:24:52.533Z,7.30
2022-10-18T16:30:56.441Z,7.53
2022-10-18T16:36:57.972Z,5.95
2022-10-18T16:42:59.475Z,6.47
2022-10-18T16:49:01.634Z,6.70
2022-10-18T16:55:03.247Z,6.25
2022-10-18T17:01:08.025Z,7.30
2022-10-18T17:07:15.294Z,7.97
2022-10-18T17:13:17.011Z,8.63
2022-10-18T17:19:18.711Z,9.47
2022-10-18T17:25:20.632Z,8.45
2022-10-18T17:31:22.388Z,8.07
2022-10-18T17:37:24.814Z,6.85
2022-10-18T17:43:26.359Z,7.65
2022-10-18T17:49:27.868Z,7.50
2022-10-18T17:55:30.047Z,7.63
2022-10-18T18:01:32.608Z,8.13
2022-10-18T18:07:34.846Z,8.90
2022-10-18T18:13:36.401Z,8.60
2022-10-18T18:19:38.138Z,10.03
2022-10-18T18:25:42.143Z,9.73
2022-10-18T18:31:44.006Z,9.83
2022-10-18T18:37:49.405Z,10.05
2022-10-18T18:43:52.231Z,9.80
2022-10-18T18:49:53.874Z,10.53
2022-10-18T18:56:00.279Z,10.23
2022-10-18T19:02:01.846Z,10.37
2022-10-18T19:08:04.457Z,10.43
2022-10-18T19:14:07.086Z,11.38
2022-10-18T19:20:12.154Z,10.60
2022-10-18T19:26:17.771Z,9.73
2022-10-18T19:32:19.433Z,9.93
2022-10-18T19:38:20.954Z,9.85
2022-10-18T19:44:23.074Z,9.55
2022-10-18T19:56:31.442Z,9.38
2022-10-18T20:02:33.954Z,9.83
2022-10-18T20:08:36.317Z,9.93
2022-10-18T20:14:37.884Z,10.48
2022-10-18T20:20:40.397Z,9.70
2022-10-18T20:26:43.744Z,9.65
2022-10-18T20:32:45.365Z,10.17
2022-10-18T20:38:47.713Z,9.70
2022-10-18T20:44:49.184Z,10.27
2022-10-18T20:50:50.869Z,9.90
2022-10-18T20:56:53.368Z,10.50
2022-10-18T21:02:57.448Z,10.47
2022-10-18T21:08:59.903Z,12.75
2022-10-18T21:15:01.413Z,12.93
2022-10-18T21:21:07.004Z,17.33
2022-10-18T21:27:08.492Z,16.48
2022-10-18T21:33:09.954Z,12.07
2022-10-18T21:39:15.884Z,9.18
2022-10-18T21:45:17.422Z,9.38
2022-10-18T21:51:19.792Z,7.97
2022-10-18T21:57:21.256Z,6.90
2022-10-18T22:03:23.326Z,7.77
2022-10-18T22:09:24.763Z,7.70
2022-10-18T22:15:26.284Z,7.60
2022-10-18T22:21:28.167Z,7.10
2022-10-18T22:27:30.350Z,8.27
2022-10-18T22:33:32.151Z,8.27
2022-10-18T22:39:33.798Z,9.43
2022-10-18T22:45:35.331Z,10.63
2022-10-18T22:51:36.955Z,9.60
2022-10-18T22:57:38.394Z,8.93
2022-10-18T23:03:39.931Z,7.80
2022-10-18T23:15:47.739Z,6.22
2022-10-18T23:21:49.406Z,6.47
2022-10-18T23:27:50.843Z,6.20
2022-10-18T23:33:53.426Z,7.47
2022-10-18T23:39:54.873Z,6.53
2022-10-18T23:45:56.371Z,6.40
2022-10-18T23:51:57.906Z,6.70
2022-10-18T23:57:59.421Z,6.43
